sensor_id;sensor_type;location;lat;lon;timestamp;temperature;humidity
9410;DHT22;4744;52.576;13.568;2022-07-03T00:01:49;17.10;1.00
9410;DHT22;4744;52.576;13.568;2022-07-03T00:04:16;17.20;1.00
9410;DHT22;4744;52.576;13.568;2022-07-03T00:06:43;17.10;1.00
9410;DHT22;4744;52.576;13.568;2022-07-03T00:09:10;17.00;1.00
9410;DHT22;4744;52.576;13.568;2022-07-03T00:11:37;17.00;1.00
9410;DHT22;4744;52.576;13.568;2022-07-03T00:14:05;17.00;1.00
9410;DHT22;4744;52.576;13.568;2022-07-03T00:16:32;17.00;1.00
9410;DHT22;4744;52.576;13.568;2022-07-03T00:18:59;17.00;1.00
9410;DHT22;4744;52.576;13.568;2022-07-03T00:21:28;17.00;1.00
9410;DHT22;4744;52.576;13.568;2022-07-03T00:23:58;16.90;1.00
9410;DHT22;4744;52.576;13.568;2022-07-03T00:26:30;16.90;1.00
9410;DHT22;4744;52.576;13.568;2022-07-03T00:29:00;16.90;1.00
9410;DHT22;4744;52.576;13.568;2022-07-03T00:31:29;16.80;1.00
9410;DHT22;4744;52.576;13.568;2022-07-03T00:33:57;16.80;1.00
9410;DHT22;4744;52.576;13.568;2022-07-03T00:36:26;16.80;1.00
9410;DHT22;4744;52.576;13.568;2022-07-03T00:38:55;16.80;1.00
9410;DHT22;4744;52.576;13.568;2022-07-03T00:41:25;16.80;1.00
9410;DHT22;4744;52.576;13.568;2022-07-03T00:43:53;16.80;1.00
9410;DHT22;4744;52.576;13.568;2022-07-03T00:46:22;16.70;1.00
9410;DHT22;4744;52.576;13.568;2022-07-03T00:48:51;16.70;1.00
9410;DHT22;4744;52.576;13.568;2022-07-03T00:51:21;16.70;1.00
9410;DHT22;4744;52.576;13.568;2022-07-03T00:53:50;16.70;1.00
9410;DHT22;4744;52.576;13.568;2022-07-03T00:56:22;16.60;1.00
9410;DHT22;4744;52.576;13.568;2022-07-03T00:58:52;16.50;1.00
9410;DHT22;4744;52.576;13.568;2022-07-03T01:01:20;16.40;1.00
9410;DHT22;4744;52.576;13.568;2022-07-03T01:03:52;16.40;1.00
9410;DHT22;4744;52.576;13.568;2022-07-03T01:06:20;16.30;1.00
9410;DHT22;4744;52.576;13.568;2022-07-03T01:08:51;16.30;1.00
9410;DHT22;4744;52.576;13.568;2022-07-03T01:11:21;16.20;1.00
9410;DHT22;4744;52.576;13.568;2022-07-03T01:14:02;16.10;1.00
9410;DHT22;4744;52.576;13.568;2022-07-03T01:16:33;16.10;1.00
9410;DHT22;4744;52.576;13.568;2022-07-03T01:19:15;16.00;1.00
9410;DHT22;4744;52.576;13.568;2022-07-03T01:21:54;15.90;1.00
9410;DHT22;4744;52.576;13.568;2022-07-03T01:24:37;15.90;1.00
9410;DHT22;4744;52.576;13.568;2022-07-03T01:27:10;15.80;1.00
9410;DHT22;4744;52.576;13.568;2022-07-03T01:29:48;15.80;1.00
9410;DHT22;4744;52.576;13.568;2022-07-03T01:32:19;15.70;1.00
9410;DHT22;4744;52.576;13.568;2022-07-03T01:34:52;15.60;1.00
9410;DHT22;4744;52.576;13.568;2022-07-03T01:37:21;15.60;1.00
9410;DHT22;4744;52.576;13.568;2022-07-03T01:39:52;15.50;1.00
9410;DHT22;4744;52.576;13.568;2022-07-03T01:42:23;15.40;1.00
9410;DHT22;4744;52.576;13.568;2022-07-03T01:44:51;15.40;1.00
9410;DHT22;4744;52.576;13.568;2022-07-03T01:47:19;15.40;1.00
9410;DHT22;4744;52.576;13.568;2022-07-03T01:49:46;15.40;1.00
9410;DHT22;4744;52.576;13.568;2022-07-03T01:52:15;15.30;1.00
9410;DHT22;4744;52.576;13.568;2022-07-03T01:54:45;15.30;1.00
9410;DHT22;4744;52.576;13.568;2022-07-03T01:57:12;15.30;1.00
9410;DHT22;4744;52.576;13.568;2022-07-03T01:59:41;15.30;1.00
9410;DHT22;4744;52.576;13.568;2022-07-03T02:02:20;15.30;1.00
9410;DHT22;4744;52.576;13.568;2022-07-03T02:04:54;15.30;1.00
9410;DHT22;4744;52.576;13.568;2022-07-03T02:07:31;15.30;1.00
9410;DHT22;4744;52.576;13.568;2022-07-03T02:10:03;15.20;1.00
9410;DHT22;4744;52.576;13.568;2022-07-03T02:12:37;15.20;1.00
9410;DHT22;4744;52.576;13.568;2022-07-03T02:15:08;15.20;1.00
9410;DHT22;4744;52.576;13.568;2022-07-03T02:17:37;15.20;1.00
9410;DHT22;4744;52.576;13.568;2022-07-03T02:20:06;15.10;1.00
9410;DHT22;4744;52.576;13.568;2022-07-03T02:22:36;15.10;1.00
9410;DHT22;4744;52.576;13.568;2022-07-03T02:25:06;15.10;1.00
9410;DHT22;4744;52.576;13.568;2022-07-03T02:27:41;15.10;1.00
9410;DHT22;4744;52.576;13.568;2022-07-03T02:30:11;15.10;1.00
9410;DHT22;4744;52.576;13.568;2022-07-03T02:32:43;15.10;1.00
9410;DHT22;4744;52.576;13.568;2022-07-03T02:35:13;15.00;1.00
9410;DHT22;4744;52.576;13.568;2022-07-03T02:37:47;15.00;1.00
9410;DHT22;4744;52.576;13.568;2022-07-03T02:40:23;15.10;1.00
9410;DHT22;4744;52.576;13.568;2022-07-03T02:43:02;15.10;1.00
9410;DHT22;4744;52.576;13.568;2022-07-03T02:45:38;15.10;1.00
9410;DHT22;4744;52.576;13.568;2022-07-03T02:48:12;15.10;1.00
9410;DHT22;4744;52.576;13.568;2022-07-03T02:50:46;15.10;1.00
9410;DHT22;4744;52.576;13.568;2022-07-03T02:53:22;15.00;1.00
9410;DHT22;4744;52.576;13.568;2022-07-03T02:55:52;15.00;1.00
9410;DHT22;4744;52.576;13.568;2022-07-03T02:58:41;15.00;1.00
9410;DHT22;4744;52.576;13.568;2022-07-03T03:01:20;15.00;1.00
9410;DHT22;4744;52.576;13.568;2022-07-03T03:04:01;14.90;1.00
9410;DHT22;4744;52.576;13.568;2022-07-03T03:06:36;14.90;1.00
9410;DHT22;4744;52.576;13.568;2022-07-03T03:09:04;14.90;1.00
9410;DHT22;4744;52.576;13.568;2022-07-03T03:11:41;14.80;1.00
9410;DHT22;4744;52.576;13.568;2022-07-03T03:14:11;14.80;1.00
9410;DHT22;4744;52.576;13.568;2022-07-03T03:16:45;14.80;1.00
9410;DHT22;4744;52.576;13.568;2022-07-03T03:19:12;14.80;1.00
9410;DHT22;4744;52.576;13.568;2022-07-03T03:21:46;14.80;1.00
9410;DHT22;4744;52.576;13.568;2022-07-03T03:24:18;14.80;1.00
9410;DHT22;4744;52.576;13.568;2022-07-03T03:26:45;14.80;1.00
9410;DHT22;4744;52.576;13.568;2022-07-03T03:29:12;14.80;1.00
9410;DHT22;4744;52.576;13.568;2022-07-03T03:31:40;14.80;1.00
9410;DHT22;4744;52.576;13.568;2022-07-03T03:34:07;14.80;1.00
9410;DHT22;4744;52.576;13.568;2022-07-03T03:36:35;14.80;1.00
9410;DHT22;4744;52.576;13.568;2022-07-03T03:39:02;14.80;1.00
9410;DHT22;4744;52.576;13.568;2022-07-03T03:41:30;14.80;1.00
9410;DHT22;4744;52.576;13.568;2022-07-03T03:43:57;14.80;1.00
9410;DHT22;4744;52.576;13.568;2022-07-03T03:46:24;14.80;1.00
9410;DHT22;4744;52.576;13.568;2022-07-03T03:48:52;14.90;1.00
9410;DHT22;4744;52.576;13.568;2022-07-03T03:51:19;14.90;1.00
9410;DHT22;4744;52.576;13.568;2022-07-03T03:53:46;15.00;1.00
9410;DHT22;4744;52.576;13.568;2022-07-03T03:56:13;15.10;1.00
9410;DHT22;4744;52.576;13.568;2022-07-03T03:58:42;15.10;1.00
9410;DHT22;4744;52.576;13.568;2022-07-03T04:01:10;15.20;1.00
9410;DHT22;4744;52.576;13.568;2022-07-03T04:03:38;15.20;1.00
9410;DHT22;4744;52.576;13.568;2022-07-03T04:06:07;15.30;1.00
9410;DHT22;4744;52.576;13.568;2022-07-03T04:08:34;15.30;1.00
9410;DHT22;4744;52.576;13.568;2022-07-03T04:11:01;15.40;1.00
9410;DHT22;4744;52.576;13.568;2022-07-03T04:13:27;15.40;1.00
9410;DHT22;4744;52.576;13.568;2022-07-03T04:15:54;15.50;1.00
9410;DHT22;4744;52.576;13.568;2022-07-03T04:18:22;15.60;1.00
9410;DHT22;4744;52.576;13.568;2022-07-03T04:20:48;15.60;1.00
9410;DHT22;4744;52.576;13.568;2022-07-03T04:23:17;15.70;1.00
9410;DHT22;4744;52.576;13.568;2022-07-03T04:25:44;15.70;1.00
9410;DHT22;4744;52.576;13.568;2022-07-03T04:28:10;15.80;1.00
9410;DHT22;4744;52.576;13.568;2022-07-03T04:30:37;15.90;1.00
9410;DHT22;4744;52.576;13.568;2022-07-03T04:33:04;16.00;1.00
9410;DHT22;4744;52.576;13.568;2022-07-03T04:35:31;16.10;1.00
9410;DHT22;4744;52.576;13.568;2022-07-03T04:37:58;16.30;1.00
9410;DHT22;4744;52.576;13.568;2022-07-03T04:40:26;16.40;1.00
9410;DHT22;4744;52.576;13.568;2022-07-03T04:42:53;16.50;1.00
9410;DHT22;4744;52.576;13.568;2022-07-03T04:45:20;16.60;1.00
9410;DHT22;4744;52.576;13.568;2022-07-03T04:47:47;16.70;1.00
9410;DHT22;4744;52.576;13.568;2022-07-03T04:50:14;16.90;1.00
9410;DHT22;4744;52.576;13.568;2022-07-03T04:52:40;17.00;1.00
9410;DHT22;4744;52.576;13.568;2022-07-03T04:55:08;17.10;1.00
9410;DHT22;4744;52.576;13.568;2022-07-03T04:57:37;17.20;1.00
9410;DHT22;4744;52.576;13.568;2022-07-03T05:00:05;17.30;1.00
9410;DHT22;4744;52.576;13.568;2022-07-03T05:02:32;17.50;1.00
9410;DHT22;4744;52.576;13.568;2022-07-03T05:04:59;17.60;1.00
9410;DHT22;4744;52.576;13.568;2022-07-03T05:07:25;17.70;1.00
9410;DHT22;4744;52.576;13.568;2022-07-03T05:09:52;17.90;1.00
9410;DHT22;4744;52.576;13.568;2022-07-03T05:12:19;18.00;1.00
9410;DHT22;4744;52.576;13.568;2022-07-03T05:14:47;18.10;1.00
9410;DHT22;4744;52.576;13.568;2022-07-03T05:17:16;18.30;1.00
9410;DHT22;4744;52.576;13.568;2022-07-03T05:19:43;18.40;1.00
9410;DHT22;4744;52.576;13.568;2022-07-03T05:22:10;18.60;1.00
9410;DHT22;4744;52.576;13.568;2022-07-03T05:24:37;18.70;1.00
9410;DHT22;4744;52.576;13.568;2022-07-03T05:27:04;18.80;1.00
9410;DHT22;4744;52.576;13.568;2022-07-03T05:29:31;19.00;1.00
9410;DHT22;4744;52.576;13.568;2022-07-03T05:31:59;19.20;1.00
9410;DHT22;4744;52.576;13.568;2022-07-03T05:34:26;19.30;1.00
9410;DHT22;4744;52.576;13.568;2022-07-03T05:36:53;19.50;1.00
9410;DHT22;4744;52.576;13.568;2022-07-03T05:39:22;19.60;1.00
9410;DHT22;4744;52.576;13.568;2022-07-03T05:42:04;19.70;1.00
9410;DHT22;4744;52.576;13.568;2022-07-03T05:44:31;19.90;1.00
9410;DHT22;4744;52.576;13.568;2022-07-03T05:46:57;20.00;1.00
9410;DHT22;4744;52.576;13.568;2022-07-03T05:49:26;20.00;1.00
9410;DHT22;4744;52.576;13.568;2022-07-03T05:51:53;20.20;1.00
9410;DHT22;4744;52.576;13.568;2022-07-03T05:54:20;20.20;1.00
9410;DHT22;4744;52.576;13.568;2022-07-03T05:56:46;20.30;1.00
9410;DHT22;4744;52.576;13.568;2022-07-03T05:59:13;20.40;1.00
9410;DHT22;4744;52.576;13.568;2022-07-03T06:01:40;20.50;1.00
9410;DHT22;4744;52.576;13.568;2022-07-03T06:04:07;20.60;1.00
9410;DHT22;4744;52.576;13.568;2022-07-03T06:06:35;20.70;1.00
9410;DHT22;4744;52.576;13.568;2022-07-03T06:09:02;20.80;1.00
9410;DHT22;4744;52.576;13.568;2022-07-03T06:11:29;20.90;1.00
9410;DHT22;4744;52.576;13.568;2022-07-03T06:13:56;21.00;1.00
9410;DHT22;4744;52.576;13.568;2022-07-03T06:16:23;21.20;1.00
9410;DHT22;4744;52.576;13.568;2022-07-03T06:18:50;21.30;1.00
9410;DHT22;4744;52.576;13.568;2022-07-03T06:21:16;21.30;1.00
9410;DHT22;4744;52.576;13.568;2022-07-03T06:23:45;21.40;1.00
9410;DHT22;4744;52.576;13.568;2022-07-03T06:26:12;21.40;1.00
9410;DHT22;4744;52.576;13.568;2022-07-03T06:28:38;21.50;1.00
9410;DHT22;4744;52.576;13.568;2022-07-03T06:31:05;21.60;1.00
9410;DHT22;4744;52.576;13.568;2022-07-03T06:33:32;21.70;1.00
9410;DHT22;4744;52.576;13.568;2022-07-03T06:35:59;21.80;1.00
9410;DHT22;4744;52.576;13.568;2022-07-03T06:38:26;21.80;1.00
9410;DHT22;4744;52.576;13.568;2022-07-03T06:40:54;21.80;1.00
9410;DHT22;4744;52.576;13.568;2022-07-03T06:43:21;21.80;1.00
9410;DHT22;4744;52.576;13.568;2022-07-03T06:45:47;21.80;1.00
9410;DHT22;4744;52.576;13.568;2022-07-03T06:48:14;21.90;1.00
9410;DHT22;4744;52.576;13.568;2022-07-03T06:50:41;22.00;1.00
9410;DHT22;4744;52.576;13.568;2022-07-03T06:53:08;22.20;1.00
9410;DHT22;4744;52.576;13.568;2022-07-03T06:55:35;22.20;1.00
9410;DHT22;4744;52.576;13.568;2022-07-03T06:58:03;22.40;1.00
9410;DHT22;4744;52.576;13.568;2022-07-03T07:00:30;22.50;1.00
9410;DHT22;4744;52.576;13.568;2022-07-03T07:02:57;22.60;1.00
9410;DHT22;4744;52.576;13.568;2022-07-03T07:05:24;22.60;1.00
9410;DHT22;4744;52.576;13.568;2022-07-03T07:07:50;22.60;1.00
9410;DHT22;4744;52.576;13.568;2022-07-03T07:10:17;22.70;1.00
9410;DHT22;4744;52.576;13.568;2022-07-03T07:12:44;22.70;1.00
9410;DHT22;4744;52.576;13.568;2022-07-03T07:15:12;22.80;1.00
9410;DHT22;4744;52.576;13.568;2022-07-03T07:17:39;22.80;1.00
9410;DHT22;4744;52.576;13.568;2022-07-03T07:20:07;22.90;1.00
9410;DHT22;4744;52.576;13.568;2022-07-03T07:22:34;23.00;1.00
9410;DHT22;4744;52.576;13.568;2022-07-03T07:25:01;23.20;1.00
9410;DHT22;4744;52.576;13.568;2022-07-03T07:27:27;23.30;1.00
9410;DHT22;4744;52.576;13.568;2022-07-03T07:29:54;23.40;1.00
9410;DHT22;4744;52.576;13.568;2022-07-03T07:32:22;23.50;1.00
9410;DHT22;4744;52.576;13.568;2022-07-03T07:34:49;23.60;1.00
9410;DHT22;4744;52.576;13.568;2022-07-03T07:37:16;23.80;1.00
9410;DHT22;4744;52.576;13.568;2022-07-03T07:39:42;23.80;1.00
9410;DHT22;4744;52.576;13.568;2022-07-03T07:42:09;23.80;1.00
9410;DHT22;4744;52.576;13.568;2022-07-03T07:44:36;23.80;1.00
9410;DHT22;4744;52.576;13.568;2022-07-03T07:47:03;23.80;1.00
9410;DHT22;4744;52.576;13.568;2022-07-03T07:49:31;23.90;1.00
9410;DHT22;4744;52.576;13.568;2022-07-03T07:51:58;24.00;1.00
9410;DHT22;4744;52.576;13.568;2022-07-03T07:54:25;24.10;1.00
9410;DHT22;4744;52.576;13.568;2022-07-03T07:56:52;24.00;1.00
9410;DHT22;4744;52.576;13.568;2022-07-03T07:59:19;24.10;1.00
9410;DHT22;4744;52.576;13.568;2022-07-03T08:01:46;24.20;1.00
9410;DHT22;4744;52.576;13.568;2022-07-03T08:04:31;24.30;1.00
9410;DHT22;4744;52.576;13.568;2022-07-03T08:07:16;24.40;1.00
9410;DHT22;4744;52.576;13.568;2022-07-03T08:09:43;24.60;1.00
9410;DHT22;4744;52.576;13.568;2022-07-03T08:12:09;24.70;1.00
9410;DHT22;4744;52.576;13.568;2022-07-03T08:14:36;24.80;1.00
9410;DHT22;4744;52.576;13.568;2022-07-03T08:17:04;24.80;1.00
9410;DHT22;4744;52.576;13.568;2022-07-03T08:19:32;24.70;1.00
9410;DHT22;4744;52.576;13.568;2022-07-03T08:21:59;24.60;1.00
9410;DHT22;4744;52.576;13.568;2022-07-03T08:24:26;24.60;1.00
9410;DHT22;4744;52.576;13.568;2022-07-03T08:26:53;24.60;1.00
9410;DHT22;4744;52.576;13.568;2022-07-03T08:29:20;24.70;1.00
9410;DHT22;4744;52.576;13.568;2022-07-03T08:31:47;24.80;1.00
9410;DHT22;4744;52.576;13.568;2022-07-03T08:34:14;24.80;1.00
9410;DHT22;4744;52.576;13.568;2022-07-03T08:36:43;24.80;1.00
9410;DHT22;4744;52.576;13.568;2022-07-03T08:39:10;24.80;1.00
9410;DHT22;4744;52.576;13.568;2022-07-03T08:41:39;24.90;1.00
9410;DHT22;4744;52.576;13.568;2022-07-03T08:44:11;25.00;1.00
9410;DHT22;4744;52.576;13.568;2022-07-03T08:46:39;25.10;1.00
9410;DHT22;4744;52.576;13.568;2022-07-03T08:49:06;25.00;1.00
9410;DHT22;4744;52.576;13.568;2022-07-03T08:51:34;25.00;1.00
9410;DHT22;4744;52.576;13.568;2022-07-03T08:54:03;25.00;1.00
9410;DHT22;4744;52.576;13.568;2022-07-03T08:56:31;25.10;1.00
9410;DHT22;4744;52.576;13.568;2022-07-03T08:58:58;25.10;1.00
9410;DHT22;4744;52.576;13.568;2022-07-03T09:01:26;25.20;1.00
9410;DHT22;4744;52.576;13.568;2022-07-03T09:03:54;25.20;1.00
9410;DHT22;4744;52.576;13.568;2022-07-03T09:06:23;25.30;1.00
9410;DHT22;4744;52.576;13.568;2022-07-03T09:08:51;25.40;1.00
9410;DHT22;4744;52.576;13.568;2022-07-03T09:11:19;25.40;1.00
9410;DHT22;4744;52.576;13.568;2022-07-03T09:13:46;25.40;1.00
9410;DHT22;4744;52.576;13.568;2022-07-03T09:16:16;25.50;1.00
9410;DHT22;4744;52.576;13.568;2022-07-03T09:18:44;25.60;1.00
9410;DHT22;4744;52.576;13.568;2022-07-03T09:21:11;25.70;1.00
9410;DHT22;4744;52.576;13.568;2022-07-03T09:23:40;25.70;1.00
9410;DHT22;4744;52.576;13.568;2022-07-03T09:26:12;25.70;1.00
9410;DHT22;4744;52.576;13.568;2022-07-03T09:28:48;25.80;1.00
9410;DHT22;4744;52.576;13.568;2022-07-03T09:31:18;25.70;1.00
9410;DHT22;4744;52.576;13.568;2022-07-03T09:33:59;25.70;1.00
9410;DHT22;4744;52.576;13.568;2022-07-03T09:36:39;25.70;1.00
9410;DHT22;4744;52.576;13.568;2022-07-03T09:39:17;25.80;1.00
9410;DHT22;4744;52.576;13.568;2022-07-03T09:41:57;25.80;1.00
9410;DHT22;4744;52.576;13.568;2022-07-03T09:44:36;25.80;1.00
9410;DHT22;4744;52.576;13.568;2022-07-03T09:47:11;25.80;1.00
9410;DHT22;4744;52.576;13.568;2022-07-03T09:49:50;25.80;1.00
9410;DHT22;4744;52.576;13.568;2022-07-03T09:52:35;25.90;1.00
9410;DHT22;4744;52.576;13.568;2022-07-03T09:55:14;26.00;1.00
9410;DHT22;4744;52.576;13.568;2022-07-03T09:57:42;26.10;1.00
9410;DHT22;4744;52.576;13.568;2022-07-03T10:00:14;26.10;1.00
9410;DHT22;4744;52.576;13.568;2022-07-03T10:02:58;26.10;1.00
9410;DHT22;4744;52.576;13.568;2022-07-03T10:05:26;26.30;1.00
9410;DHT22;4744;52.576;13.568;2022-07-03T10:07:55;26.40;1.00
9410;DHT22;4744;52.576;13.568;2022-07-03T10:10:23;26.60;1.00
9410;DHT22;4744;52.576;13.568;2022-07-03T10:12:52;26.70;1.00
9410;DHT22;4744;52.576;13.568;2022-07-03T10:15:21;26.70;1.00
9410;DHT22;4744;52.576;13.568;2022-07-03T10:17:52;26.70;1.00
9410;DHT22;4744;52.576;13.568;2022-07-03T10:20:27;26.80;1.00
9410;DHT22;4744;52.576;13.568;2022-07-03T10:22:55;26.80;1.00
9410;DHT22;4744;52.576;13.568;2022-07-03T10:25:22;26.90;1.00
9410;DHT22;4744;52.576;13.568;2022-07-03T10:27:49;27.00;1.00
9410;DHT22;4744;52.576;13.568;2022-07-03T10:30:17;27.00;1.00
9410;DHT22;4744;52.576;13.568;2022-07-03T10:32:47;27.20;1.00
9410;DHT22;4744;52.576;13.568;2022-07-03T10:35:17;27.30;1.00
9410;DHT22;4744;52.576;13.568;2022-07-03T10:38:07;27.30;1.00
9410;DHT22;4744;52.576;13.568;2022-07-03T10:40:42;27.20;1.00
9410;DHT22;4744;52.576;13.568;2022-07-03T10:43:28;27.20;1.00
9410;DHT22;4744;52.576;13.568;2022-07-03T10:46:15;27.20;1.00
9410;DHT22;4744;52.576;13.568;2022-07-03T10:48:59;27.20;1.00
9410;DHT22;4744;52.576;13.568;2022-07-03T10:51:28;27.50;1.00
9410;DHT22;4744;52.576;13.568;2022-07-03T10:54:19;27.70;1.00
9410;DHT22;4744;52.576;13.568;2022-07-03T10:57:06;27.80;1.00
9410;DHT22;4744;52.576;13.568;2022-07-03T11:00:04;27.90;1.00
9410;DHT22;4744;52.576;13.568;2022-07-03T11:02:34;27.90;1.00
9410;DHT22;4744;52.576;13.568;2022-07-03T11:08:09;28.00;1.00
9410;DHT22;4744;52.576;13.568;2022-07-03T11:10:38;28.10;1.00
9410;DHT22;4744;52.576;13.568;2022-07-03T11:13:17;28.30;1.00
9410;DHT22;4744;52.576;13.568;2022-07-03T11:15:48;28.60;1.00
9410;DHT22;4744;52.576;13.568;2022-07-03T11:18:25;28.70;1.00
9410;DHT22;4744;52.576;13.568;2022-07-03T11:21:26;28.90;1.00
9410;DHT22;4744;52.576;13.568;2022-07-03T11:24:17;29.00;1.00
9410;DHT22;4744;52.576;13.568;2022-07-03T11:26:45;29.10;1.00
9410;DHT22;4744;52.576;13.568;2022-07-03T11:29:28;29.10;1.00
9410;DHT22;4744;52.576;13.568;2022-07-03T11:31:55;29.20;1.00
9410;DHT22;4744;52.576;13.568;2022-07-03T11:34:22;29.40;1.00
9410;DHT22;4744;52.576;13.568;2022-07-03T11:36:50;29.50;1.00
9410;DHT22;4744;52.576;13.568;2022-07-03T11:39:19;29.50;1.00
9410;DHT22;4744;52.576;13.568;2022-07-03T11:41:47;29.50;1.00
9410;DHT22;4744;52.576;13.568;2022-07-03T11:44:16;29.50;1.00
9410;DHT22;4744;52.576;13.568;2022-07-03T11:46:48;29.50;1.00
9410;DHT22;4744;52.576;13.568;2022-07-03T11:49:17;29.40;1.00
9410;DHT22;4744;52.576;13.568;2022-07-03T11:51:58;29.50;1.00
9410;DHT22;4744;52.576;13.568;2022-07-03T11:54:26;29.60;1.00
9410;DHT22;4744;52.576;13.568;2022-07-03T11:56:56;29.90;1.00
9410;DHT22;4744;52.576;13.568;2022-07-03T11:59:22;30.10;1.00
9410;DHT22;4744;52.576;13.568;2022-07-03T12:01:49;30.00;1.00
9410;DHT22;4744;52.576;13.568;2022-07-03T12:04:17;29.90;1.00
9410;DHT22;4744;52.576;13.568;2022-07-03T12:06:46;30.00;1.00
9410;DHT22;4744;52.576;13.568;2022-07-03T12:09:20;30.10;1.00
9410;DHT22;4744;52.576;13.568;2022-07-03T12:11:58;30.20;1.00
9410;DHT22;4744;52.576;13.568;2022-07-03T12:14:40;30.30;1.00
9410;DHT22;4744;52.576;13.568;2022-07-03T12:17:09;30.30;1.00
9410;DHT22;4744;52.576;13.568;2022-07-03T12:19:36;30.10;1.00
9410;DHT22;4744;52.576;13.568;2022-07-03T12:22:04;30.20;1.00
9410;DHT22;4744;52.576;13.568;2022-07-03T12:24:32;30.30;1.00
9410;DHT22;4744;52.576;13.568;2022-07-03T12:27:02;30.30;1.00
9410;DHT22;4744;52.576;13.568;2022-07-03T12:29:30;30.20;1.00
9410;DHT22;4744;52.576;13.568;2022-07-03T12:31:57;29.80;1.00
9410;DHT22;4744;52.576;13.568;2022-07-03T12:34:24;29.50;1.00
9410;DHT22;4744;52.576;13.568;2022-07-03T12:36:56;29.40;1.00
9410;DHT22;4744;52.576;13.568;2022-07-03T12:39:22;29.20;1.00
9410;DHT22;4744;52.576;13.568;2022-07-03T12:41:51;29.10;1.00
9410;DHT22;4744;52.576;13.568;2022-07-03T12:44:17;29.00;1.00
9410;DHT22;4744;52.576;13.568;2022-07-03T12:46:46;28.80;1.00
9410;DHT22;4744;52.576;13.568;2022-07-03T12:49:14;28.80;1.00
9410;DHT22;4744;52.576;13.568;2022-07-03T12:51:43;28.80;1.00
9410;DHT22;4744;52.576;13.568;2022-07-03T12:54:12;29.10;1.00
9410;DHT22;4744;52.576;13.568;2022-07-03T12:56:41;29.20;1.00
9410;DHT22;4744;52.576;13.568;2022-07-03T12:59:27;29.40;1.00
9410;DHT22;4744;52.576;13.568;2022-07-03T13:02:01;29.60;1.00
9410;DHT22;4744;52.576;13.568;2022-07-03T13:04:33;29.80;1.00
9410;DHT22;4744;52.576;13.568;2022-07-03T13:07:01;29.90;1.00
9410;DHT22;4744;52.576;13.568;2022-07-03T13:09:28;29.70;1.00
9410;DHT22;4744;52.576;13.568;2022-07-03T13:11:55;29.70;1.00
9410;DHT22;4744;52.576;13.568;2022-07-03T13:14:22;29.60;1.00
9410;DHT22;4744;52.576;13.568;2022-07-03T13:16:52;29.60;1.00
9410;DHT22;4744;52.576;13.568;2022-07-03T13:19:20;29.50;1.00
9410;DHT22;4744;52.576;13.568;2022-07-03T13:21:48;29.50;1.00
9410;DHT22;4744;52.576;13.568;2022-07-03T13:24:17;29.20;1.00
9410;DHT22;4744;52.576;13.568;2022-07-03T13:26:44;29.10;1.00
9410;DHT22;4744;52.576;13.568;2022-07-03T13:29:11;29.10;1.00
9410;DHT22;4744;52.576;13.568;2022-07-03T13:31:38;29.00;1.00
9410;DHT22;4744;52.576;13.568;2022-07-03T13:34:06;28.90;1.00
9410;DHT22;4744;52.576;13.568;2022-07-03T13:36:33;28.80;1.00
9410;DHT22;4744;52.576;13.568;2022-07-03T13:39:00;28.90;1.00
9410;DHT22;4744;52.576;13.568;2022-07-03T13:41:27;29.10;1.00
9410;DHT22;4744;52.576;13.568;2022-07-03T13:43:54;29.20;1.00
9410;DHT22;4744;52.576;13.568;2022-07-03T13:46:22;29.40;1.00
9410;DHT22;4744;52.576;13.568;2022-07-03T13:48:50;29.50;1.00
9410;DHT22;4744;52.576;13.568;2022-07-03T13:51:19;29.40;1.00
9410;DHT22;4744;52.576;13.568;2022-07-03T13:53:46;29.30;1.00
9410;DHT22;4744;52.576;13.568;2022-07-03T13:56:14;29.20;1.00
9410;DHT22;4744;52.576;13.568;2022-07-03T13:58:41;29.20;1.00
9410;DHT22;4744;52.576;13.568;2022-07-03T14:01:08;29.30;1.00
9410;DHT22;4744;52.576;13.568;2022-07-03T14:03:35;29.40;1.00
9410;DHT22;4744;52.576;13.568;2022-07-03T14:06:02;29.50;1.00
9410;DHT22;4744;52.576;13.568;2022-07-03T14:08:30;29.50;1.00
9410;DHT22;4744;52.576;13.568;2022-07-03T14:10:57;29.60;1.00
9410;DHT22;4744;52.576;13.568;2022-07-03T14:13:24;29.80;1.00
9410;DHT22;4744;52.576;13.568;2022-07-03T14:15:51;29.90;1.00
9410;DHT22;4744;52.576;13.568;2022-07-03T14:18:18;29.90;1.00
9410;DHT22;4744;52.576;13.568;2022-07-03T14:20:44;29.80;1.00
9410;DHT22;4744;52.576;13.568;2022-07-03T14:23:11;29.60;1.00
9410;DHT22;4744;52.576;13.568;2022-07-03T14:25:39;29.50;1.00
9410;DHT22;4744;52.576;13.568;2022-07-03T14:28:07;29.60;1.00
9410;DHT22;4744;52.576;13.568;2022-07-03T14:30:50;29.70;1.00
9410;DHT22;4744;52.576;13.568;2022-07-03T14:33:34;29.60;1.00
9410;DHT22;4744;52.576;13.568;2022-07-03T14:36:01;29.60;1.00
9410;DHT22;4744;52.576;13.568;2022-07-03T14:38:28;29.70;1.00
9410;DHT22;4744;52.576;13.568;2022-07-03T14:40:57;29.80;1.00
9410;DHT22;4744;52.576;13.568;2022-07-03T14:43:23;29.90;1.00
9410;DHT22;4744;52.576;13.568;2022-07-03T14:45:50;29.90;1.00
9410;DHT22;4744;52.576;13.568;2022-07-03T14:48:17;29.70;1.00
9410;DHT22;4744;52.576;13.568;2022-07-03T14:50:44;29.60;1.00
9410;DHT22;4744;52.576;13.568;2022-07-03T14:53:11;29.60;1.00
9410;DHT22;4744;52.576;13.568;2022-07-03T14:55:40;29.50;1.00
9410;DHT22;4744;52.576;13.568;2022-07-03T14:58:14;29.50;1.00
9410;DHT22;4744;52.576;13.568;2022-07-03T15:00:46;29.40;1.00
9410;DHT22;4744;52.576;13.568;2022-07-03T15:03:17;29.30;1.00
9410;DHT22;4744;52.576;13.568;2022-07-03T15:05:46;29.10;1.00
9410;DHT22;4744;52.576;13.568;2022-07-03T15:08:26;28.90;1.00
9410;DHT22;4744;52.576;13.568;2022-07-03T15:10:59;28.80;1.00
9410;DHT22;4744;52.576;13.568;2022-07-03T15:13:30;28.70;1.00
9410;DHT22;4744;52.576;13.568;2022-07-03T15:15:57;28.60;1.00
9410;DHT22;4744;52.576;13.568;2022-07-03T15:18:25;28.60;1.00
9410;DHT22;4744;52.576;13.568;2022-07-03T15:20:52;28.60;1.00
9410;DHT22;4744;52.576;13.568;2022-07-03T15:23:19;28.50;1.00
9410;DHT22;4744;52.576;13.568;2022-07-03T15:25:47;28.50;1.00
9410;DHT22;4744;52.576;13.568;2022-07-03T15:28:15;28.60;1.00
9410;DHT22;4744;52.576;13.568;2022-07-03T15:30:47;28.50;1.00
9410;DHT22;4744;52.576;13.568;2022-07-03T15:33:15;28.50;1.00
9410;DHT22;4744;52.576;13.568;2022-07-03T15:35:46;28.60;1.00
9410;DHT22;4744;52.576;13.568;2022-07-03T15:38:17;28.70;1.00
9410;DHT22;4744;52.576;13.568;2022-07-03T15:40:52;28.80;1.00
9410;DHT22;4744;52.576;13.568;2022-07-03T15:43:41;28.90;1.00
9410;DHT22;4744;52.576;13.568;2022-07-03T15:46:27;29.00;1.00
9410;DHT22;4744;52.576;13.568;2022-07-03T15:49:15;29.00;1.00
9410;DHT22;4744;52.576;13.568;2022-07-03T15:51:48;29.00;1.00
9410;DHT22;4744;52.576;13.568;2022-07-03T15:54:23;29.00;1.00
9410;DHT22;4744;52.576;13.568;2022-07-03T15:56:55;29.00;1.00
9410;DHT22;4744;52.576;13.568;2022-07-03T15:59:26;29.10;1.00
9410;DHT22;4744;52.576;13.568;2022-07-03T16:01:59;29.20;1.00
9410;DHT22;4744;52.576;13.568;2022-07-03T16:04:55;29.40;1.00
9410;DHT22;4744;52.576;13.568;2022-07-03T16:07:27;29.50;1.00
9410;DHT22;4744;52.576;13.568;2022-07-03T16:09:56;29.60;1.00
9410;DHT22;4744;52.576;13.568;2022-07-03T16:12:24;29.70;1.00
9410;DHT22;4744;52.576;13.568;2022-07-03T16:14:52;29.80;1.00
9410;DHT22;4744;52.576;13.568;2022-07-03T16:17:21;29.70;1.00
9410;DHT22;4744;52.576;13.568;2022-07-03T16:19:49;29.70;1.00
9410;DHT22;4744;52.576;13.568;2022-07-03T16:22:17;29.70;1.00
9410;DHT22;4744;52.576;13.568;2022-07-03T16:24:45;29.70;1.00